Time;durP1;ratioP1;P1;durP2;ratioP2;P2;SDS_P1;SDS_P2;PMS_P1;PMS_P2;Temp;Humidity;BMP_temperature;BMP_pressure;BME280_temperature;BME280_humidity;BME280_pressure;Samples;Min_cycle;Max_cycle;Signal;HPM_P1;HPM_P2
2022/03/22 00:00:47;;;;;;;20.33;13.57;;;;;;;3.75;46.46;103239.28;2097007;28;20179;-68
2022/03/22 00:01:50;;;;;;;18.57;12.60;;;;;;;3.74;47.20;103234.94;2095558;28;20187;-68
2022/03/22 00:02:52;;;;;;;18.05;13.48;;;;;;;3.75;48.57;103234.59;2095977;28;20179;-68
2022/03/22 00:03:53;;;;;;;20.15;14.80;;;;;;;3.76;49.59;103232.69;2095650;28;20198;-68
2022/03/22 00:04:54;;;;;;;19.10;14.40;;;;;;;2.77;48.78;103073.06;2097123;28;20638;-68
2022/03/22 00:05:54;;;;;;;19.10;14.37;;;;;;;3.77;48.87;103235.09;2098052;28;20645;-68
2022/03/22 00:06:55;;;;;;;18.87;14.93;;;;;;;3.80;49.84;103236.38;2098537;28;20180;-69
2022/03/22 00:07:56;;;;;;;18.60;13.10;;;;;;;3.82;49.35;103234.13;2098204;28;20214;-68
2022/03/22 00:08:56;;;;;;;21.10;15.17;;;;;;;3.77;49.88;103226.06;2098762;28;20190;-68
2022/03/22 00:09:57;;;;;;;20.10;14.23;;;;;;;2.85;49.03;103080.47;2098422;28;20263;-68
2022/03/22 00:10:57;;;;;;;21.53;16.10;;;;;;;3.77;49.67;103239.78;2098716;28;20699;-69
2022/03/22 00:11:58;;;;;;;19.67;13.20;;;;;;;3.82;48.70;103265.13;2098039;28;20605;-68
2022/03/22 00:12:59;;;;;;;17.80;12.80;;;;;;;3.02;48.25;103105.09;2098104;28;20602;-68
2022/03/22 00:14:00;;;;;;;20.03;13.00;;;;;;;3.73;48.60;103220.41;2098024;28;20330;-68
2022/03/22 00:15:05;;;;;;;17.65;13.90;;;;;;;3.47;48.33;103181.22;2098726;28;20176;-68
2022/03/22 00:16:07;;;;;;;20.70;13.38;;;;;;;3.78;48.51;103230.41;2098271;28;20172;-68
2022/03/22 00:17:09;;;;;;;21.50;14.82;;;;;;;3.77;49.13;103228.78;2098628;28;20241;-68
2022/03/22 00:18:10;;;;;;;19.08;13.27;;;;;;;3.74;49.52;103230.25;2097578;28;20194;-68
2022/03/22 00:19:11;;;;;;;19.15;13.60;;;;;;;3.49;48.99;103192.66;2097892;28;20176;-68
2022/03/22 00:20:12;;;;;;;19.07;13.73;;;;;;;3.70;49.50;103223.78;2098309;28;20244;-69
2022/03/22 00:21:13;;;;;;;16.52;13.10;;;;;;;3.69;49.55;103226.88;2098388;28;20306;-68
2022/03/22 00:22:14;;;;;;;19.40;14.17;;;;;;;3.64;50.42;103216.06;2097828;28;20176;-68
2022/03/22 00:23:16;;;;;;;20.30;15.25;;;;;;;3.58;50.40;103209.94;2098480;28;20206;-68
2022/03/22 00:24:16;;;;;;;20.60;15.38;;;;;;;3.57;51.26;103213.00;2097026;28;20262;-68
2022/03/22 00:25:17;;;;;;;20.67;14.27;;;;;;;3.64;51.87;103224.31;2097988;28;20172;-68
2022/03/22 00:26:18;;;;;;;19.00;14.00;;;;;;;3.66;51.78;103227.50;2097459;28;20183;-68
2022/03/22 00:27:18;;;;;;;18.20;14.43;;;;;;;3.62;51.27;103227.34;2097733;28;20203;-68
2022/03/22 00:28:19;;;;;;;27.10;16.17;;;;;;;3.39;51.94;103190.25;2098155;28;20225;-68
2022/03/22 00:29:19;;;;;;;23.53;16.57;;;;;;;3.27;51.65;103186.53;2098582;28;20257;-68
2022/03/22 00:30:25;;;;;;;26.50;17.60;;;;;;;3.43;52.12;103220.56;2098187;28;20681;-69
2022/03/22 00:31:26;;;;;;;24.75;15.77;;;;;;;3.38;53.28;103221.53;2098434;28;20219;-68
2022/03/22 00:32:26;;;;;;;27.33;16.63;;;;;;;3.26;51.99;103217.81;2097677;28;20251;-68
2022/03/22 00:33:27;;;;;;;25.90;17.00;;;;;;;3.13;53.22;103225.03;2098236;28;20623;-68
2022/03/22 00:34:27;;;;;;;26.60;17.30;;;;;;;3.12;52.92;103223.44;2097650;28;20682;-68
2022/03/22 00:35:33;;;;;;;27.47;16.27;;;;;;;2.65;52.55;103146.78;2098467;28;20237;-68
2022/03/22 00:36:34;;;;;;;24.45;17.85;;;;;;;3.08;53.01;103221.66;2098210;28;20175;-68
2022/03/22 00:37:37;;;;;;;24.55;18.67;;;;;;;3.08;53.99;103222.44;2098193;28;20648;-68
2022/03/22 00:38:38;;;;;;;25.50;18.65;;;;;;;3.08;54.07;103216.19;2097918;28;20183;-68
2022/03/22 00:39:38;;;;;;;28.80;20.47;;;;;;;2.95;55.80;103190.53;2098467;28;20211;-68
2022/03/22 00:40:40;;;;;;;25.53;19.50;;;;;;;3.12;54.75;103230.84;2098382;28;20176;-69
2022/03/22 00:41:41;;;;;;;28.50;19.65;;;;;;;2.67;54.62;103141.81;2098432;28;20182;-68
2022/03/22 00:42:43;;;;;;;27.20;18.70;;;;;;;2.66;54.28;103141.00;2097981;28;20211;-68
2022/03/22 00:43:43;;;;;;;26.00;19.98;;;;;;;3.16;54.94;103216.19;2097497;28;20183;-68
2022/03/22 00:44:44;;;;;;;25.10;19.30;;;;;;;3.14;55.09;103210.22;2098358;28;20259;-68
2022/03/22 00:45:46;;;;;;;28.23;19.03;;;;;;;3.14;54.21;103217.63;2098080;28;20471;-68
2022/03/22 00:46:47;;;;;;;27.58;19.23;;;;;;;3.18;54.17;103221.38;2098311;28;20183;-68
2022/03/22 00:47:51;;;;;;;29.83;19.80;;;;;;;2.53;54.63;103111.84;2097878;28;20186;-68
2022/03/22 00:48:51;;;;;;;23.33;17.70;;;;;;;3.15;54.44;103211.03;2098387;28;20245;-68
2022/03/22 00:49:52;;;;;;;22.30;17.87;;;;;;;3.18;53.50;103219.41;2098220;28;20687;-68
2022/03/22 00:50:53;;;;;;;26.53;18.60;;;;;;;3.19;52.99;103220.22;2098427;28;20235;-68
2022/03/22 00:51:53;;;;;;;22.20;16.93;;;;;;;3.21;53.01;103216.03;2098047;28;20201;-68
2022/03/22 00:52:56;;;;;;;26.00;17.67;;;;;;;3.23;53.25;103219.25;2097693;28;20707;-69
2022/03/22 00:54:00;;;;;;;23.08;17.85;;;;;;;3.27;53.95;103216.69;2097651;28;20180;-68
2022/03/22 00:55:01;;;;;;;26.77;17.63;;;;;;;3.27;52.68;103217.50;2098313;28;20183;-68
2022/03/22 00:56:02;;;;;;;23.87;17.03;;;;;;;3.30;53.05;103214.13;2097807;28;20262;-69
2022/03/22 00:57:03;;;;;;;24.83;17.43;;;;;;;3.26;52.71;103201.38;2098407;28;20180;-68
2022/03/22 00:58:04;;;;;;;23.77;18.37;;;;;;;2.60;51.82;103087.53;2097110;28;20194;-68
2022/03/22 01:00:25;;;;;;;21.52;16.17;;;;;;;3.35;51.13;103202.19;2098276;28;20182;-68
2022/03/22 01:01:25;;;;;;;26.55;17.10;;;;;;;3.41;52.09;103207.19;2098024;28;20188;-68
2022/03/22 01:02:26;;;;;;;23.43;17.67;;;;;;;2.62;54.06;103092.69;2097589;28;20186;-68
2022/03/22 01:03:28;;;;;;;25.47;17.63;;;;;;;3.49;54.35;103205.59;2097976;28;20210;-68
2022/03/22 01:04:29;;;;;;;22.17;17.20;;;;;;;3.50;51.93;103207.97;2097485;28;20191;-68
2022/03/22 01:05:31;;;;;;;22.73;16.37;;;;;;;3.48;51.11;103207.50;2098263;28;20175;-68
2022/03/22 01:06:31;;;;;;;24.13;17.92;;;;;;;3.48;50.71;103203.94;2097815;28;20187;-68
2022/03/22 01:07:33;;;;;;;21.30;17.10;;;;;;;3.47;50.74;103203.16;2097817;28;20211;-68
2022/03/22 01:08:34;;;;;;;23.52;17.02;;;;;;;2.94;51.13;103114.97;2097972;28;20232;-68
2022/03/22 01:09:34;;;;;;;24.47;17.27;;;;;;;3.25;51.05;103158.66;2098218;28;20646;-68
2022/03/22 01:10:37;;;;;;;24.03;17.50;;;;;;;3.52;51.07;103199.44;2097952;28;20190;-68
2022/03/22 01:11:39;;;;;;;25.60;17.88;;;;;;;3.54;51.02;103202.69;2098163;28;20202;-68
2022/03/22 01:12:43;;;;;;;23.13;16.88;;;;;;;3.54;51.26;103202.69;2097460;28;20208;-68
2022/03/22 01:13:44;;;;;;;24.33;17.67;;;;;;;3.53;51.20;103207.34;2097327;28;20175;-68
2022/03/22 01:14:45;;;;;;;23.80;16.83;;;;;;;2.93;51.63;103115.28;2097547;28;20193;-68
2022/03/22 01:15:45;;;;;;;22.47;17.03;;;;;;;3.52;51.50;103205.75;2097360;28;20188;-68
2022/03/22 01:16:46;;;;;;;22.63;17.53;;;;;;;3.50;51.18;103197.00;2096937;28;20669;-68
2022/03/22 01:17:49;;;;;;;23.90;16.77;;;;;;;2.81;51.13;103099.47;2097121;28;20230;-68
2022/03/22 01:18:49;;;;;;;26.40;17.67;;;;;;;3.01;51.02;103142.69;2098200;28;20286;-68
2022/03/22 01:19:50;;;;;;;23.33;17.07;;;;;;;3.45;51.10;103196.38;2097848;28;20200;-68
2022/03/22 01:20:51;;;;;;;22.80;17.67;;;;;;;2.27;51.75;103009.69;2097978;28;20183;-68
2022/03/22 01:21:52;;;;;;;22.87;17.20;;;;;;;3.26;51.03;103172.03;2097926;28;20168;-68
2022/03/22 01:22:54;;;;;;;21.30;16.95;;;;;;;3.44;51.02;103192.81;2097442;28;20886;-68
2022/03/22 01:23:55;;;;;;;22.52;16.85;;;;;;;2.71;51.29;103079.78;2097180;28;20545;-68
2022/03/22 01:24:56;;;;;;;22.02;16.88;;;;;;;3.38;51.49;103187.84;2098069;28;20208;-68
2022/03/22 01:25:56;;;;;;;24.33;17.10;;;;;;;3.42;52.39;103186.06;2097836;28;20186;-68
2022/03/22 01:26:57;;;;;;;23.07;16.83;;;;;;;3.42;51.86;103184.13;2097989;28;20184;-68
2022/03/22 01:27:58;;;;;;;26.40;16.20;;;;;;;3.43;53.33;103193.16;2097566;28;20179;-68
2022/03/22 01:28:58;;;;;;;22.60;16.93;;;;;;;3.17;51.82;103156.69;2097449;28;20185;-68
2022/03/22 01:29:59;;;;;;;23.67;17.00;;;;;;;3.45;51.57;103188.94;2097305;28;20180;-68
2022/03/22 01:31:00;;;;;;;21.20;16.90;;;;;;;2.95;51.45;103102.88;2097892;28;20634;-68
2022/03/22 01:32:01;;;;;;;22.13;15.97;;;;;;;3.40;51.64;103183.66;2097637;28;20573;-68
2022/03/22 01:33:02;;;;;;;22.30;17.00;;;;;;;3.37;52.10;103181.56;2097460;28;20689;-68
2022/03/22 01:34:03;;;;;;;23.27;16.77;;;;;;;3.35;51.33;103181.06;2097272;28;20183;-68
2022/03/22 01:35:05;;;;;;;21.50;15.98;;;;;;;3.36;50.91;103177.19;2097968;28;20179;-68
2022/03/22 01:36:06;;;;;;;20.55;16.15;;;;;;;3.35;51.60;103181.06;2097824;28;20168;-68
2022/03/22 01:37:07;;;;;;;20.47;16.30;;;;;;;3.17;51.03;103168.47;2097756;28;20627;-68
2022/03/22 01:38:08;;;;;;;21.13;16.57;;;;;;;3.23;52.40;103177.34;2097433;28;20575;-68
2022/03/22 01:39:08;;;;;;;20.87;16.43;;;;;;;3.21;52.38;103180.41;2097817;28;20172;-68
2022/03/22 01:40:10;;;;;;;21.23;16.13;;;;;;;3.01;52.03;103153.63;2097873;28;20410;-68
2022/03/22 01:41:10;;;;;;;22.90;16.80;;;;;;;3.15;52.19;103186.38;2097945;28;20170;-68
2022/03/22 01:42:11;;;;;;;23.10;17.73;;;;;;;3.12;52.70;103190.56;2096808;28;20180;-68
2022/03/22 01:43:11;;;;;;;22.30;16.50;;;;;;;2.90;52.24;103154.25;2088545;28;20575;-68
2022/03/22 01:44:12;;;;;;;23.37;16.77;;;;;;;2.93;51.81;103159.09;2096485;28;20187;-68
2022/03/22 01:45:13;;;;;;;21.67;16.60;;;;;;;3.02;52.17;103160.72;2097940;28;20172;-68
2022/03/22 01:46:15;;;;;;;22.75;16.80;;;;;;;2.28;52.47;103051.53;2097644;28;20178;-68
2022/03/22 01:47:18;;;;;;;22.75;16.48;;;;;;;3.02;52.74;103181.81;2097394;28;20256;-68
2022/03/22 01:48:20;;;;;;;19.67;15.90;;;;;;;3.04;52.87;103185.84;2097321;28;20184;-68
2022/03/22 01:49:21;;;;;;;21.73;15.65;;;;;;;2.90;52.89;103151.50;2097841;28;20180;-68
2022/03/22 01:50:22;;;;;;;24.35;16.40;;;;;;;3.03;52.75;103181.50;2097752;28;20175;-68
2022/03/22 01:51:22;;;;;;;20.80;15.63;;;;;;;2.99;52.86;103180.53;2097184;28;20195;-68
2022/03/22 01:52:27;;;;;;;24.37;15.83;;;;;;;2.83;53.89;103176.63;2096664;28;20184;-68
2022/03/22 01:53:29;;;;;;;19.77;15.98;;;;;;;2.81;54.38;103178.88;2097468;28;20187;-68
2022/03/22 01:54:29;;;;;;;21.10;16.02;;;;;;;1.54;54.20;102974.06;2097270;28;20175;-68
2022/03/22 01:55:30;;;;;;;21.97;16.67;;;;;;;2.80;54.29;103163.59;2097778;28;20193;-68
2022/03/22 01:56:30;;;;;;;20.93;14.77;;;;;;;2.59;54.07;103142.59;2097657;28;20179;-68
2022/03/22 01:57:33;;;;;;;19.73;15.40;;;;;;;2.82;54.25;103168.75;2097431;28;20646;-68
2022/03/22 01:58:34;;;;;;;18.35;14.38;;;;;;;2.83;54.59;103167.63;2097537;28;20171;-68
2022/03/22 01:59:34;;;;;;;17.37;13.83;;;;;;;2.84;54.35;103171.97;2097756;28;20661;-68
2022/03/22 02:00:35;;;;;;;19.37;13.87;;;;;;;2.83;51.52;103165.66;2097539;28;20645;-68
2022/03/22 02:05:51;;;;;;;17.73;12.40;;;;;;;2.94;48.34;103172.50;2097765;28;20171;-68
2022/03/22 02:06:56;;;;;;;18.38;13.07;;;;;;;3.00;50.98;103175.88;2097612;28;20628;-68
2022/03/22 02:08:01;;;;;;;16.83;12.18;;;;;;;3.01;50.04;103177.47;2097088;28;20201;-68
2022/03/22 02:09:03;;;;;;;17.75;12.05;;;;;;;2.73;50.73;103129.59;2097876;28;20569;-68
2022/03/22 02:10:04;;;;;;;21.33;12.55;;;;;;;2.48;49.65;103075.56;2097512;28;20642;-68
2022/03/22 02:11:05;;;;;;;18.15;12.43;;;;;;;1.34;49.99;102900.84;2097698;28;20255;-68
2022/03/22 02:12:06;;;;;;;16.57;12.33;;;;;;;3.13;49.79;103172.97;2097357;28;20183;-68
2022/03/22 02:13:07;;;;;;;17.10;12.07;;;;;;;3.17;50.29;103175.88;2090542;28;20233;-68
2022/03/22 02:14:08;;;;;;;17.70;13.17;;;;;;;3.21;49.56;103180.41;2087923;28;20191;-68
2022/03/22 02:15:09;;;;;;;19.08;12.00;;;;;;;1.89;49.04;102964.88;2089457;28;20650;-68
2022/03/22 02:16:09;;;;;;;17.20;12.80;;;;;;;3.21;47.96;103169.44;2089353;28;20844;-68
2022/03/22 02:17:10;;;;;;;17.00;12.67;;;;;;;3.23;48.09;103160.91;2089535;28;20627;-68
2022/03/22 02:18:11;;;;;;;17.70;13.17;;;;;;;3.17;47.79;103146.56;2088973;28;20183;-68
2022/03/22 02:19:14;;;;;;;17.03;12.30;;;;;;;3.35;47.55;103167.38;2089313;28;20172;-68
2022/03/22 02:20:15;;;;;;;21.48;13.40;;;;;;;3.30;48.23;103151.09;2094318;28;20632;-68
2022/03/22 02:21:18;;;;;;;20.33;14.53;;;;;;;3.39;49.88;103164.78;2097493;28;20220;-68
2022/03/22 02:22:22;;;;;;;16.67;12.88;;;;;;;2.60;49.93;103042.91;2097089;28;20421;-68
2022/03/22 02:23:44;;;;;;;18.05;13.73;;;;;;;3.40;50.27;103167.22;2097514;28;20292;-68
2022/03/22 02:24:45;;;;;;;20.25;13.27;;;;;;;3.31;51.03;103155.44;2097529;28;20171;-68
2022/03/22 02:25:50;;;;;;;18.30;13.38;;;;;;;2.90;50.89;103099.47;2097420;28;20189;-68
2022/03/22 02:26:50;;;;;;;17.67;13.07;;;;;;;3.36;51.08;103173.66;2097492;28;20233;-68
2022/03/22 02:27:54;;;;;;;20.00;14.50;;;;;;;3.06;50.49;103126.09;2096540;28;20226;-68
2022/03/22 02:28:55;;;;;;;19.95;13.85;;;;;;;3.06;50.65;103137.03;2096897;28;20266;-68
2022/03/22 02:29:56;;;;;;;20.03;13.27;;;;;;;3.26;50.97;103166.56;2096738;28;20233;-68
2022/03/22 02:30:57;;;;;;;17.58;13.60;;;;;;;3.27;51.50;103168.16;2097555;28;20172;-68
2022/03/22 02:31:57;;;;;;;19.30;13.00;;;;;;;2.35;51.58;103021.75;2097179;28;20213;-68
2022/03/22 02:33:02;;;;;;;16.57;13.10;;;;;;;3.26;53.04;103176.69;2097062;28;20562;-68
2022/03/22 02:34:03;;;;;;;16.95;12.60;;;;;;;3.27;54.27;103164.59;2096677;28;20180;-68
2022/03/22 02:35:05;;;;;;;18.27;13.48;;;;;;;3.29;53.33;103173.31;2097545;28;20172;-68
2022/03/22 02:36:06;;;;;;;21.02;14.55;;;;;;;2.54;52.72;103049.66;2097247;28;20206;-68
2022/03/22 02:37:06;;;;;;;17.33;13.63;;;;;;;3.27;53.94;103173.66;2097513;28;20172;-68
2022/03/22 02:38:08;;;;;;;18.43;13.73;;;;;;;3.28;56.06;103174.47;2097004;28;20223;-68
2022/03/22 02:39:08;;;;;;;17.15;13.48;;;;;;;3.26;54.95;103173.97;2097292;28;20665;-68
2022/03/22 02:40:09;;;;;;;17.60;13.87;;;;;;;3.12;55.68;103165.88;2097675;28;20539;-68
2022/03/22 02:41:29;;;;;;;19.20;13.05;;;;;;;2.93;54.16;103150.88;2096836;28;20179;-68
2022/03/22 02:42:30;;;;;;;16.45;13.27;;;;;;;3.13;54.75;103174.94;2096541;28;20653;-68
2022/03/22 02:43:31;;;;;;;18.67;13.10;;;;;;;3.19;50.94;103179.91;2096528;28;20195;-68
2022/03/22 02:44:32;;;;;;;19.05;13.77;;;;;;;2.98;50.27;103145.25;2096011;28;20182;-68
2022/03/22 02:45:32;;;;;;;18.73;12.80;;;;;;;3.17;51.36;103170.41;2097543;28;20728;-68
2022/03/22 02:46:33;;;;;;;19.10;12.70;;;;;;;3.21;48.46;103168.63;2096553;28;20215;-68
2022/03/22 02:47:34;;;;;;;18.40;12.80;;;;;;;3.22;49.43;103176.53;2096455;28;20203;-68
2022/03/22 02:48:35;;;;;;;19.88;13.45;;;;;;;3.11;48.68;103163.47;2097147;28;20233;-68
2022/03/22 02:49:35;;;;;;;18.53;13.23;;;;;;;3.24;48.54;103182.50;2097408;28;20232;-68
2022/03/22 02:50:36;;;;;;;20.67;13.00;;;;;;;3.28;49.48;103179.94;2097316;28;20183;-68
2022/03/22 02:51:36;;;;;;;21.37;13.00;;;;;;;3.32;50.08;103184.44;2097489;28;20259;-68
2022/03/22 02:52:38;;;;;;;20.57;14.03;;;;;;;3.36;50.52;103179.94;2096876;28;20179;-68
2022/03/22 02:53:39;;;;;;;20.02;13.32;;;;;;;3.25;50.64;103155.91;2097146;28;20183;-68
2022/03/22 02:54:39;;;;;;;18.33;13.52;;;;;;;3.44;52.08;103183.81;2096873;28;20187;-68
2022/03/22 02:55:40;;;;;;;18.63;13.97;;;;;;;3.42;51.76;103180.56;2097301;28;20679;-68
2022/03/22 02:56:41;;;;;;;17.40;13.17;;;;;;;3.01;51.98;103112.53;2097405;28;20659;-68
2022/03/22 02:57:42;;;;;;;19.03;13.20;;;;;;;2.67;47.81;103057.72;2097119;28;20566;-68
2022/03/22 02:58:43;;;;;;;18.85;13.10;;;;;;;3.46;47.10;103182.38;2097085;28;20203;-68
2022/03/22 02:59:43;;;;;;;18.70;13.40;;;;;;;2.89;49.63;103093.22;2097270;28;20214;-68
2022/03/22 03:00:44;;;;;;;19.53;13.43;;;;;;;3.50;50.45;103182.53;2097326;28;20183;-68
2022/03/22 03:01:44;;;;;;;17.73;13.03;;;;;;;2.30;50.06;102987.16;2097145;28;20573;-68
2022/03/22 03:02:51;;;;;;;19.17;13.20;;;;;;;3.50;49.29;103180.56;2096952;28;20179;-68
2022/03/22 03:03:52;;;;;;;20.17;12.95;;;;;;;3.54;50.33;103176.06;2096567;28;20186;-68
2022/03/22 03:04:52;;;;;;;18.50;13.70;;;;;;;3.53;49.70;103176.38;2097205;28;20179;-68
2022/03/22 03:05:53;;;;;;;19.23;13.20;;;;;;;3.52;49.93;103180.25;2097136;28;20180;-68
2022/03/22 03:06:53;;;;;;;21.97;13.83;;;;;;;3.52;48.96;103170.09;2097355;28;20210;-68
2022/03/22 03:07:54;;;;;;;22.50;13.20;;;;;;;3.53;49.00;103176.38;2096890;28;20180;-68
2022/03/22 03:08:59;;;;;;;24.47;13.70;;;;;;;3.58;49.23;103179.78;2097195;28;20561;-68
2022/03/22 03:09:59;;;;;;;23.23;14.20;;;;;;;3.55;49.72;103182.34;2097147;28;20562;-68
2022/03/22 03:11:00;;;;;;;30.60;15.03;;;;;;;3.54;49.58;103180.75;2097354;28;20171;-68
2022/03/22 03:12:00;;;;;;;29.83;14.20;;;;;;;2.87;49.27;103087.22;2097119;28;20351;-68
2022/03/22 03:13:03;;;;;;;28.50;13.80;;;;;;;2.68;49.53;103055.81;2096143;28;20203;-68
2022/03/22 03:15:23;;;;;;;32.72;15.60;;;;;;;3.35;50.45;103174.78;2097339;28;20183;-68
2022/03/22 03:16:23;;;;;;;36.93;16.00;;;;;;;1.96;50.24;102965.19;2097299;28;20659;-68
2022/03/22 03:17:24;;;;;;;31.03;14.83;;;;;;;3.26;49.81;103172.03;2097142;28;20179;-68
2022/03/22 03:18:24;;;;;;;22.33;14.40;;;;;;;3.22;49.20;103172.97;2096877;28;20179;-68
2022/03/22 03:19:25;;;;;;;32.27;15.90;;;;;;;3.21;49.44;103174.13;2097249;28;20176;-68
2022/03/22 03:20:26;;;;;;;25.43;14.77;;;;;;;3.21;49.97;103174.13;2097094;28;20569;-68
2022/03/22 03:21:26;;;;;;;23.73;14.47;;;;;;;2.90;49.08;103124.13;2097172;28;20727;-68
2022/03/22 03:22:27;;;;;;;27.87;15.57;;;;;;;2.63;49.93;103083.34;2096675;28;20171;-68
2022/03/22 03:23:27;;;;;;;26.53;15.27;;;;;;;3.20;50.45;103175.25;2097134;28;20684;-68
2022/03/22 03:24:28;;;;;;;24.13;14.57;;;;;;;3.21;49.74;103177.69;2096547;28;20184;-68
2022/03/22 03:25:29;;;;;;;27.33;15.20;;;;;;;3.20;50.27;103178.00;2097250;28;20182;-68
2022/03/22 03:26:30;;;;;;;25.40;15.60;;;;;;;3.19;49.21;103177.16;2097049;28;20237;-68
2022/03/22 03:27:30;;;;;;;27.40;15.33;;;;;;;1.71;49.04;102935.06;2096975;28;20791;-68
2022/03/22 03:28:31;;;;;;;30.70;15.00;;;;;;;3.19;49.95;103174.44;2096932;28;20253;-68
2022/03/22 03:29:31;;;;;;;24.53;14.90;;;;;;;3.17;49.54;103173.97;2097304;28;20183;-68
2022/03/22 03:30:32;;;;;;;23.37;14.93;;;;;;;3.17;48.24;103170.41;2097247;28;20179;-68
2022/03/22 03:31:32;;;;;;;23.40;14.10;;;;;;;3.17;49.91;103173.97;2097148;28;20187;-68
2022/03/22 03:32:34;;;;;;;25.20;14.93;;;;;;;3.19;49.09;103174.44;2096708;28;20201;-68
2022/03/22 03:33:34;;;;;;;25.40;14.88;;;;;;;3.16;49.98;103171.53;2096940;28;20269;-68
2022/03/22 03:34:36;;;;;;;24.60;14.60;;;;;;;2.37;50.33;103055.09;2096608;28;20179;-68
2022/03/22 03:35:36;;;;;;;33.33;15.35;;;;;;;2.81;50.16;103120.56;2097032;28;20176;-68
2022/03/22 03:36:37;;;;;;;28.93;14.70;;;;;;;2.47;49.62;103082.97;2097077;28;20201;-68
2022/03/22 03:37:41;;;;;;;48.33;16.77;;;;;;;2.85;48.93;103144.25;2096979;28;20176;-68
2022/03/22 03:38:42;;;;;;;35.13;15.40;;;;;;;2.81;48.56;103139.72;2096791;28;20180;-68
2022/03/22 03:39:43;;;;;;;36.83;14.83;;;;;;;2.92;48.29;103171.19;2097749;28;20424;-68
2022/03/22 03:42:02;;;;;;;30.55;14.55;;;;;;;2.82;48.82;103164.06;2098720;28;20172;-68
2022/03/22 03:43:03;;;;;;;29.60;15.07;;;;;;;1.65;48.63;102983.59;2098250;28;20196;-68
2022/03/22 03:47:03;;;;;;;23.67;15.30;;;;;;;2.70;49.37;103171.28;2098021;28;20205;-68
2022/03/22 03:47:11;;;;;;;24.17;14.77;;;;;;;2.64;49.39;103170.63;2089464;28;20192;-68
2022/03/22 03:48:11;;;;;;;31.52;16.98;;;;;;;1.77;49.91;103024.00;2090079;28;20195;-68
2022/03/22 03:49:12;;;;;;;25.40;15.33;;;;;;;2.55;48.35;103152.53;2090484;28;20184;-68
2022/03/22 03:50:12;;;;;;;25.23;17.40;;;;;;;2.62;49.90;103197.50;2090370;28;20192;-68
2022/03/22 03:51:13;;;;;;;21.07;14.20;;;;;;;2.15;48.98;103093.47;2090584;28;20184;-68
2022/03/22 03:52:19;;;;;;;20.17;13.73;;;;;;;2.60;48.02;103166.91;2089925;28;20241;-68
2022/03/22 03:53:19;;;;;;;26.63;16.63;;;;;;;2.63;48.83;103163.53;2090292;28;20608;-68
2022/03/22 03:54:20;;;;;;;28.10;17.33;;;;;;;2.59;50.16;103154.34;2089978;28;20183;-68
2022/03/22 03:55:21;;;;;;;33.85;18.42;;;;;;;2.68;49.92;103165.31;2090264;28;20191;-68
2022/03/22 03:56:21;;;;;;;30.87;19.07;;;;;;;2.64;50.17;103162.44;2090340;28;20191;-67
2022/03/22 03:57:24;;;;;;;26.77;16.87;;;;;;;2.61;50.51;103156.75;2090365;28;20173;-68
2022/03/22 03:58:24;;;;;;;26.35;16.05;;;;;;;2.59;49.45;103170.78;2090252;28;20180;-68
2022/03/22 03:59:25;;;;;;;25.97;16.07;;;;;;;2.60;49.20;103160.63;2090352;28;20242;-68
2022/03/22 04:00:25;;;;;;;33.70;19.93;;;;;;;2.57;49.55;103159.31;2090356;28;20188;-68
2022/03/22 04:01:26;;;;;;;44.17;18.77;;;;;;;2.54;49.59;103164.63;2090385;28;20186;-68
2022/03/22 04:02:26;;;;;;;24.63;14.73;;;;;;;2.51;49.55;103163.34;2090039;28;20805;-68
2022/03/22 04:03:27;;;;;;;22.83;14.57;;;;;;;2.49;47.77;103165.59;2090305;28;20211;-68
2022/03/22 04:04:28;;;;;;;22.83;15.97;;;;;;;2.50;48.50;103160.91;2089534;28;20187;-68
2022/03/22 04:05:28;;;;;;;25.63;15.70;;;;;;;2.49;49.00;103164.78;2097900;28;20182;-68
2022/03/22 04:06:29;;;;;;;24.70;14.07;;;;;;;2.41;48.50;103154.63;2097954;28;20187;-68
2022/03/22 04:07:29;;;;;;;29.50;18.23;;;;;;;2.18;49.39;103123.78;2090047;28;20262;-68
2022/03/22 04:08:30;;;;;;;25.43;15.67;;;;;;;2.49;50.30;103170.25;2090352;28;20425;-68
2022/03/22 04:09:31;;;;;;;24.80;15.20;;;;;;;2.38;48.79;103149.75;2090306;28;20182;-68
2022/03/22 04:10:34;;;;;;;26.17;15.70;;;;;;;2.32;48.68;103151.81;2089506;28;20192;-68
2022/03/22 04:11:35;;;;;;;24.15;16.13;;;;;;;2.49;48.57;103164.78;2089816;28;20191;-68
2022/03/22 04:12:42;;;;;;;23.43;16.90;;;;;;;2.47;48.92;103170.56;2091388;28;20177;-68
2022/03/22 04:13:43;;;;;;;26.75;17.02;;;;;;;2.35;49.39;103156.66;2097990;28;20198;-68
2022/03/22 04:14:43;;;;;;;33.63;16.97;;;;;;;2.32;49.60;103162.75;2097952;28;20742;-68
2022/03/22 04:15:44;;;;;;;23.47;16.20;;;;;;;1.57;49.51;103065.53;2097798;28;20233;-68
2022/03/22 04:16:46;;;;;;;21.48;14.00;;;;;;;1.34;49.83;103025.72;2098605;28;20265;-68
2022/03/22 04:17:48;;;;;;;27.38;15.57;;;;;;;1.03;49.05;102989.38;2098268;28;20181;-68
2022/03/22 04:18:50;;;;;;;22.63;14.30;;;;;;;2.33;47.94;103174.53;2098622;28;20182;-68
2022/03/22 04:19:51;;;;;;;29.58;16.00;;;;;;;2.31;48.40;103163.09;2098118;28;20187;-68
2022/03/22 04:20:52;;;;;;;32.33;15.60;;;;;;;2.38;48.94;103177.13;2098667;28;20182;-68
2022/03/22 04:21:53;;;;;;;32.03;17.17;;;;;;;2.35;49.63;103170.34;2098371;28;20168;-68
2022/03/22 04:22:55;;;;;;;26.80;15.27;;;;;;;2.18;49.53;103156.59;2097476;28;20248;-68
2022/03/22 04:23:55;;;;;;;33.83;15.40;;;;;;;2.25;50.20;103161.59;2097240;28;20203;-68
2022/03/22 04:24:56;;;;;;;32.30;15.30;;;;;;;2.34;49.62;103185.16;2098797;28;20183;-68
2022/03/22 04:26:00;;;;;;;32.10;16.50;;;;;;;2.36;50.06;103177.44;2098237;28;20642;-68
2022/03/22 04:33:36;;;;;;;23.05;15.27;;;;;;;2.30;49.29;103169.66;2098416;28;20182;-68
2022/03/22 04:34:38;;;;;;;32.90;16.58;;;;;;;2.36;50.05;103177.44;2097068;28;20191;-68
2022/03/22 04:35:39;;;;;;;30.98;17.05;;;;;;;2.40;50.59;103185.81;2097987;28;20187;-68
2022/03/22 04:36:40;;;;;;;28.50;15.40;;;;;;;2.39;50.36;103182.28;2098103;28;20203;-68
2022/03/22 04:37:41;;;;;;;30.07;15.90;;;;;;;2.38;50.47;103188.91;2098264;28;20186;-68
2022/03/22 04:38:42;;;;;;;29.83;16.50;;;;;;;2.36;48.87;103180.19;2098067;28;20663;-68
2022/03/22 04:39:46;;;;;;;24.03;15.23;;;;;;;2.40;48.98;103183.09;2098305;28;20737;-68
2022/03/22 04:40:47;;;;;;;28.50;16.90;;;;;;;2.39;48.36;103181.47;2098467;28;20224;-68
2022/03/22 04:41:47;;;;;;;29.20;18.20;;;;;;;2.39;47.08;103185.03;2098338;28;20195;-68
2022/03/22 04:42:49;;;;;;;30.27;16.80;;;;;;;2.42;47.97;103181.63;2098082;28;20474;-68
2022/03/22 04:43:50;;;;;;;27.15;15.65;;;;;;;2.43;49.52;103177.81;2097668;28;20182;-68
2022/03/22 04:44:51;;;;;;;28.97;15.83;;;;;;;2.46;49.67;103184.59;2098508;28;20640;-68
2022/03/22 04:45:51;;;;;;;29.77;16.03;;;;;;;2.32;49.13;103157.28;2098216;28;20505;-68
2022/03/22 04:46:52;;;;;;;28.77;15.87;;;;;;;2.36;49.54;103158.28;2098148;28;20575;-68
2022/03/22 04:47:53;;;;;;;28.93;14.93;;;;;;;2.52;50.64;103186.03;2097867;28;20182;-68
2022/03/22 04:48:53;;;;;;;28.50;15.63;;;;;;;1.32;49.15;102989.69;2098502;28;20179;-68
2022/03/22 04:49:54;;;;;;;32.40;16.10;;;;;;;2.55;49.14;103186.22;2097863;28;20693;-68
2022/03/22 04:56:43;;;;;;;29.53;15.57;;;;;;;2.56;49.47;103178.81;2097827;28;20270;-68
2022/03/22 04:57:30;;;;;;;26.30;14.93;;;;;;;1.94;48.17;103057.69;2098160;28;20163;-68
2022/03/22 04:58:31;;;;;;;28.40;15.50;;;;;;;2.67;47.41;103180.94;2098110;28;20191;-68
2022/03/22 04:59:32;;;;;;;36.53;16.42;;;;;;;2.70;47.56;103177.56;2098357;28;20244;-68
2022/03/22 05:00:35;;;;;;;28.97;15.60;;;;;;;2.49;47.19;103140.13;2098006;28;20249;-68
2022/03/22 05:01:36;;;;;;;24.85;15.02;;;;;;;2.74;47.41;103175.81;2098235;28;20219;-68
2022/03/22 05:02:36;;;;;;;34.57;16.20;;;;;;;1.61;47.86;102995.47;2097843;28;20190;-68
2022/03/22 05:03:37;;;;;;;25.20;15.10;;;;;;;2.79;46.52;103177.59;2098009;28;20661;-68
2022/03/22 05:04:38;;;;;;;31.90;15.40;;;;;;;2.77;47.93;103171.63;2097809;28;20645;-68